Time;durP1;ratioP1;P1;durP2;ratioP2;P2;SDS_P1;SDS_P2;PMS_P1;PMS_P2;Temp;Humidity;BMP_temperature;BMP_pressure;BME280_temperature;BME280_humidity;BME280_pressure;Samples;Min_cycle;Max_cycle;Signal;HPM_P1;HPM_P2
2023/02/13 00:01:03;;;;;;;3.20;1.90;;;;;;;5.71;100.00;102953.81;4989919;28;20105;-82
2023/02/13 00:03:30;;;;;;;4.27;2.10;;;;;;;5.68;100.00;102954.63;4996560;28;20049;-85
2023/02/13 00:05:56;;;;;;;3.63;1.87;;;;;;;5.65;100.00;102949.28;4996533;28;20044;-84
2023/02/13 00:08:23;;;;;;;5.87;2.60;;;;;;;5.65;100.00;102950.16;5025843;28;20132;-85
2023/02/13 00:10:50;;;;;;;4.77;2.13;;;;;;;5.64;100.00;102948.38;5019071;28;20045;-84
2023/02/13 00:13:17;;;;;;;4.93;1.83;;;;;;;5.69;100.00;102955.50;5027019;28;20046;-83
2023/02/13 00:15:43;;;;;;;6.30;3.03;;;;;;;5.73;100.00;102950.44;5025471;28;20041;-85
2023/02/13 00:18:10;;;;;;;6.37;2.50;;;;;;;5.76;100.00;102947.91;4975093;28;20046;-86
2023/02/13 00:20:37;;;;;;;3.80;2.20;;;;;;;5.74;100.00;102948.72;5000002;28;20041;-82
2023/02/13 00:23:03;;;;;;;3.63;2.23;;;;;;;5.70;100.00;102949.41;5008972;28;20049;-84
2023/02/13 00:25:30;;;;;;;3.97;2.30;;;;;;;5.71;100.00;102941.59;5009067;28;20574;-86
2023/02/13 00:27:59;;;;;;;5.70;2.90;;;;;;;5.74;100.00;102946.09;4991920;28;20049;-86
2023/02/13 00:30:26;;;;;;;3.77;2.40;;;;;;;5.71;100.00;102952.09;5013338;28;20041;-85
2023/02/13 00:32:53;;;;;;;4.73;2.80;;;;;;;5.75;100.00;102960.97;5003151;28;20103;-85
2023/02/13 00:35:19;;;;;;;4.10;2.43;;;;;;;5.82;100.00;102952.50;5031309;28;20100;-84
2023/02/13 00:37:46;;;;;;;3.77;1.90;;;;;;;5.66;100.00;102961.53;5024997;28;20037;-85
2023/02/13 00:40:13;;;;;;;4.10;2.20;;;;;;;5.59;100.00;102951.66;5001676;28;20049;-85
2023/02/13 00:42:39;;;;;;;5.30;2.63;;;;;;;5.58;100.00;102952.50;5029991;28;20170;-84
2023/02/13 00:45:07;;;;;;;4.63;2.40;;;;;;;5.58;100.00;102968.22;5031395;28;20100;-83
2023/02/13 00:47:33;;;;;;;4.27;2.33;;;;;;;5.61;100.00;102952.59;5010521;28;20046;-83
2023/02/13 00:50:00;;;;;;;4.40;2.97;;;;;;;5.63;100.00;102951.84;4994486;28;20046;-85
2023/02/13 00:52:27;;;;;;;5.13;2.97;;;;;;;5.58;100.00;102947.25;5009163;28;20035;-86
2023/02/13 00:54:53;;;;;;;4.97;2.30;;;;;;;5.61;100.00;102945.63;5026448;28;20042;-83
2023/02/13 00:57:20;;;;;;;4.67;2.47;;;;;;;5.68;100.00;102958.97;5012761;28;20494;-85
2023/02/13 00:59:47;;;;;;;5.43;2.93;;;;;;;5.65;100.00;102954.50;5034702;28;20042;-85
2023/02/13 01:02:16;;;;;;;6.63;2.87;;;;;;;5.59;100.00;102963.03;4990269;28;20409;-83
2023/02/13 01:04:42;;;;;;;4.07;2.40;;;;;;;5.54;100.00;102964.59;5010531;28;20045;-85
2023/02/13 01:07:09;;;;;;;4.93;2.60;;;;;;;5.58;100.00;102965.63;5026340;28;20076;-85
2023/02/13 01:09:36;;;;;;;5.60;3.13;;;;;;;5.56;100.00;102965.56;5015495;28;20045;-85
2023/02/13 01:12:02;;;;;;;5.97;2.70;;;;;;;5.51;100.00;102964.50;5028678;28;20042;-84
2023/02/13 01:14:29;;;;;;;4.43;2.30;;;;;;;5.51;100.00;102956.63;4995863;28;20057;-85
2023/02/13 01:16:56;;;;;;;7.20;2.70;;;;;;;5.69;100.00;102958.13;4995782;28;20462;-85
2023/02/13 01:19:24;;;;;;;4.73;2.63;;;;;;;5.53;100.00;102952.31;5016510;28;20101;-85
2023/02/13 01:21:53;;;;;;;6.27;2.73;;;;;;;5.48;100.00;102946.03;4994800;28;20034;-84
2023/02/13 01:24:19;;;;;;;6.03;2.50;;;;;;;5.49;100.00;102952.16;5022273;28;20038;-85
2023/02/13 01:26:46;;;;;;;5.80;2.43;;;;;;;5.47;100.00;102957.34;4996618;28;20507;-85
2023/02/13 01:29:13;;;;;;;4.40;2.30;;;;;;;5.43;100.00;102963.31;5028864;28;20042;-84
2023/02/13 01:31:40;;;;;;;6.33;2.30;;;;;;;5.46;100.00;102957.28;5011839;28;20033;-85
2023/02/13 01:34:07;;;;;;;3.97;2.47;;;;;;;5.41;100.00;102961.47;5028695;28;20049;-85
2023/02/13 01:36:33;;;;;;;3.63;2.50;;;;;;;5.36;100.00;102962.19;5012103;28;20104;-85
2023/02/13 01:39:03;;;;;;;5.27;2.20;;;;;;;5.35;100.00;102959.50;5028484;28;20416;-85
2023/02/13 01:41:30;;;;;;;4.30;2.40;;;;;;;5.32;100.00;102954.16;5011852;28;20038;-85
2023/02/13 01:44:00;;;;;;;3.67;1.97;;;;;;;5.33;100.00;102958.56;5028643;28;20049;-85
2023/02/13 01:46:32;;;;;;;4.37;2.33;;;;;;;5.29;100.00;102956.63;5014985;28;20046;-86
2023/02/13 01:49:08;;;;;;;4.90;2.03;;;;;;;5.34;100.00;102958.63;5025696;28;20038;-86
2023/02/13 01:51:37;;;;;;;4.53;2.20;;;;;;;5.31;100.00;102952.38;4997062;28;20046;-86
2023/02/13 01:54:10;;;;;;;4.43;2.00;;;;;;;5.33;100.00;102956.84;5028641;28;20058;-84
2023/02/13 01:56:47;;;;;;;4.27;2.37;;;;;;;5.30;100.00;102961.06;4995162;28;20041;-85
2023/02/13 01:59:18;;;;;;;3.63;2.13;;;;;;;5.41;100.00;102959.75;5000178;28;20041;-83
2023/02/13 02:01:46;;;;;;;2.70;1.63;;;;;;;5.30;100.00;102958.47;5000979;28;20499;-83
2023/02/13 02:04:17;;;;;;;4.33;2.10;;;;;;;5.37;100.00;102957.81;5009076;28;20411;-83
2023/02/13 02:06:50;;;;;;;3.57;1.77;;;;;;;5.25;100.00;102954.75;5019431;28;20684;-82
2023/02/13 02:09:20;;;;;;;4.95;2.35;;;;;;;5.16;100.00;102955.31;5019827;28;20132;-82
2023/02/13 02:12:24;;;;;;;4.20;2.13;;;;;;;5.26;100.00;102961.78;4987001;28;20046;-82
2023/02/13 02:14:52;;;;;;;3.10;2.00;;;;;;;5.27;100.00;102959.22;5049406;28;20046;-82
2023/02/13 02:17:21;;;;;;;3.13;1.90;;;;;;;5.19;100.00;102958.03;5032810;28;20048;-81
2023/02/13 02:20:01;;;;;;;3.00;1.53;;;;;;;5.17;100.00;102954.47;5031923;28;20049;-82
2023/02/13 02:23:07;;;;;;;2.53;1.60;;;;;;;5.18;100.00;102952.72;5041734;28;20042;-82
2023/02/13 02:26:07;;;;;;;4.27;2.20;;;;;;;5.19;100.00;102952.78;4999798;28;20038;-82
2023/02/13 02:29:00;;;;;;;2.50;1.70;;;;;;;5.11;100.00;102955.94;5022982;28;20430;-86
2023/02/13 02:31:50;;;;;;;3.60;1.60;;;;;;;5.09;100.00;102954.16;4996656;28;20577;-86
2023/02/13 02:34:53;;;;;;;4.20;2.20;;;;;;;5.07;100.00;102950.59;5028037;28;20046;-86
2023/02/13 02:37:42;;;;;;;4.33;2.03;;;;;;;5.09;100.00;102966.38;4974789;28;20048;-87
2023/02/13 02:40:32;;;;;;;3.10;1.63;;;;;;;5.02;100.00;102965.22;5029108;28;20049;-86
2023/02/13 02:43:11;;;;;;;3.50;1.90;;;;;;;5.04;100.00;102957.44;5017544;28;20038;-86
2023/02/13 02:45:43;;;;;;;3.87;2.07;;;;;;;4.99;100.00;102957.25;5001170;28;20531;-87
2023/02/13 02:51:20;;;;;;;3.10;2.00;;;;;;;4.95;100.00;102943.97;5038099;28;20510;-86
2023/02/13 02:57:16;;;;;;;3.80;1.60;;;;;;;4.89;100.00;102944.66;5004021;28;20058;-87
2023/02/13 03:08:06;;;;;;;3.37;1.70;;;;;;;4.81;100.00;102938.22;5028707;28;20038;-86
2023/02/13 03:13:41;;;;;;;3.77;2.03;;;;;;;4.80;100.00;102936.44;4998539;28;20112;-87
2023/02/13 03:25:07;;;;;;;2.40;1.47;;;;;;;4.79;100.00;102947.72;5013242;28;20045;-86
2023/02/13 03:30:51;;;;;;;3.57;1.70;;;;;;;4.80;100.00;102942.56;4998959;28;20042;-86
2023/02/13 03:33:42;;;;;;;3.17;1.83;;;;;;;4.84;100.00;102950.53;4999057;28;20141;-86
2023/02/13 03:39:34;;;;;;;3.23;2.23;;;;;;;4.83;100.00;102944.41;4999447;28;20046;-86
2023/02/13 03:42:04;;;;;;;3.63;2.50;;;;;;;4.83;100.00;102944.41;5011537;28;20518;-86
2023/02/13 03:44:45;;;;;;;4.63;3.27;;;;;;;4.86;100.00;102952.38;4996473;28;20092;-87
2023/02/13 03:47:13;;;;;;;4.20;2.97;;;;;;;4.86;100.00;102944.50;5010331;28;20050;-86
2023/02/13 03:52:44;;;;;;;4.03;2.70;;;;;;;4.86;100.00;102943.63;5036908;28;20042;-86
2023/02/13 04:00:59;;;;;;;3.93;3.07;;;;;;;4.90;100.00;102943.81;5004181;28;20038;-86
2023/02/13 04:03:41;;;;;;;5.83;3.47;;;;;;;4.82;100.00;102945.25;4994489;28;20034;-86
2023/02/13 04:06:14;;;;;;;4.73;3.40;;;;;;;4.76;100.00;102935.41;5019229;28;20046;-86
2023/02/13 04:08:41;;;;;;;5.03;3.30;;;;;;;4.72;100.00;102940.47;4997541;28;20463;-85
2023/02/13 04:11:17;;;;;;;4.53;3.50;;;;;;;4.74;100.00;102946.66;5031143;28;20046;-85
2023/02/13 04:13:57;;;;;;;5.20;3.37;;;;;;;4.74;100.00;102941.41;5014703;28;20033;-86
2023/02/13 04:16:31;;;;;;;5.80;3.50;;;;;;;4.74;100.00;102942.31;5030375;28;20426;-85
2023/02/13 04:18:57;;;;;;;;;;;;;;;4.80;100.00;102936.44;5010971;28;20136;-85
2023/02/13 04:21:24;;;;;;;4.87;3.20;;;;;;;4.74;100.00;102936.19;5017248;28;19925;-86
2023/02/13 04:23:51;;;;;;;5.53;3.60;;;;;;;4.73;100.00;102926.53;5029044;28;20096;-86
2023/02/13 04:26:20;;;;;;;5.37;3.50;;;;;;;4.71;100.00;102936.06;5031865;28;20038;-82
2023/02/13 04:28:47;;;;;;;5.07;3.40;;;;;;;4.66;100.00;102940.22;5006966;28;20056;-82
2023/02/13 04:31:14;;;;;;;5.63;3.23;;;;;;;4.74;100.00;102939.69;5003962;28;20050;-82
2023/02/13 04:33:40;;;;;;;5.00;3.17;;;;;;;4.66;100.00;102938.50;5018423;28;20419;-82
2023/02/13 04:36:07;;;;;;;4.50;2.90;;;;;;;4.64;100.00;102936.66;5031734;28;20140;-82
2023/02/13 04:38:34;;;;;;;4.30;3.10;;;;;;;4.62;100.00;102933.06;5012957;28;20046;-85
2023/02/13 04:41:00;;;;;;;4.47;2.90;;;;;;;4.66;100.00;102930.63;5026018;28;20053;-82
2023/02/13 04:43:27;;;;;;;3.90;2.83;;;;;;;4.71;100.00;102929.09;4978960;28;20043;-82
2023/02/13 04:45:54;;;;;;;4.30;2.77;;;;;;;4.64;100.00;102929.69;5015342;28;20060;-85
2023/02/13 04:48:21;;;;;;;4.37;3.00;;;;;;;4.69;100.00;102924.63;5015939;28;20107;-82
2023/02/13 04:50:47;;;;;;;5.33;3.50;;;;;;;4.68;100.00;102923.72;5046716;28;20034;-82
2023/02/13 04:53:14;;;;;;;4.00;2.70;;;;;;;4.70;100.00;102929.91;4998146;28;20034;-85
2023/02/13 04:55:41;;;;;;;4.53;2.73;;;;;;;4.74;100.00;102917.84;5049809;28;20037;-84
2023/02/13 04:58:07;;;;;;;5.60;3.50;;;;;;;4.80;100.00;102913.75;4985878;28;20050;-82
2023/02/13 05:00:34;;;;;;;4.80;2.83;;;;;;;4.75;100.00;102928.38;5000869;28;20547;-81
2023/02/13 05:03:05;;;;;;;5.73;3.43;;;;;;;4.78;100.00;102923.25;5000999;28;20077;-81
2023/02/13 05:05:33;;;;;;;4.27;2.97;;;;;;;4.74;100.00;102929.22;4979999;28;20042;-85
2023/02/13 05:08:00;;;;;;;3.83;2.67;;;;;;;4.75;100.00;102927.50;4981908;28;20044;-82
2023/02/13 05:10:27;;;;;;;5.07;2.63;;;;;;;4.69;100.00;102925.50;4996527;28;20038;-81
2023/02/13 05:12:53;;;;;;;4.17;2.63;;;;;;;4.65;100.00;102933.19;5002758;28;20042;-82
2023/02/13 05:15:22;;;;;;;5.27;3.27;;;;;;;4.61;100.00;102933.88;5029272;28;20054;-81
2023/02/13 05:17:49;;;;;;;3.97;2.90;;;;;;;4.63;100.00;102927.00;5006741;28;20046;-81
2023/02/13 05:20:16;;;;;;;4.23;2.93;;;;;;;4.60;100.00;102927.75;5001864;28;20517;-82
2023/02/13 05:25:32;;;;;;;4.70;3.00;;;;;;;4.68;100.00;102928.06;5027428;28;20042;-82
2023/02/13 05:27:59;;;;;;;3.90;2.60;;;;;;;4.61;100.00;102936.50;4986101;28;20042;-82
2023/02/13 05:30:26;;;;;;;4.50;2.87;;;;;;;4.57;100.00;102939.84;4994103;28;20042;-82
2023/02/13 05:32:53;;;;;;;4.10;2.60;;;;;;;4.55;100.00;102936.28;4995338;28;20506;-82
2023/02/13 05:35:21;;;;;;;4.93;3.07;;;;;;;4.51;100.00;102937.88;4993156;28;20073;-82
2023/02/13 05:37:48;;;;;;;4.37;3.23;;;;;;;4.48;100.00;102943.00;5006520;28;20065;-81
2023/02/13 05:40:14;;;;;;;4.63;3.07;;;;;;;4.54;100.00;102945.88;5026611;28;20049;-80
2023/02/13 05:42:41;;;;;;;5.67;3.43;;;;;;;4.52;100.00;102943.16;5010951;28;20050;-80
2023/02/13 05:45:09;;;;;;;5.90;3.67;;;;;;;4.52;100.00;102943.16;4997473;28;20048;-83
2023/02/13 05:47:35;;;;;;;5.23;3.17;;;;;;;4.61;100.00;102946.97;5004768;28;20041;-81
2023/02/13 05:50:02;;;;;;;4.53;3.10;;;;;;;4.53;100.00;102937.09;4994687;28;20034;-81
2023/02/13 05:52:29;;;;;;;5.37;3.20;;;;;;;4.52;100.00;102945.78;4994561;28;20054;-80
2023/02/13 05:54:55;;;;;;;4.73;3.70;;;;;;;4.60;100.00;102945.19;4995823;28;20046;-81
2023/02/13 05:57:22;;;;;;;5.43;3.17;;;;;;;4.50;100.00;102943.94;5029613;28;20046;-80
2023/02/13 05:59:48;;;;;;;5.13;3.53;;;;;;;4.60;100.00;102943.47;4993094;28;20511;-80
2023/02/13 06:02:15;;;;;;;5.63;3.17;;;;;;;4.53;100.00;102944.94;5023265;28;20046;-83
2023/02/13 06:04:42;;;;;;;4.63;3.10;;;;;;;4.56;100.00;102949.44;5030363;28;20047;-80
2023/02/13 06:07:09;;;;;;;4.53;3.73;;;;;;;4.50;100.00;102944.81;4979845;28;20037;-82
2023/02/13 06:09:35;;;;;;;4.97;3.10;;;;;;;4.49;100.00;102945.66;4999584;28;20042;-81
2023/02/13 06:12:02;;;;;;;4.00;2.87;;;;;;;4.46;100.00;102950.78;5021178;28;20045;-81
2023/02/13 06:14:28;;;;;;;5.27;3.23;;;;;;;4.44;100.00;102955.03;5028091;28;20045;-81
2023/02/13 06:16:55;;;;;;;4.77;3.10;;;;;;;4.46;100.00;102961.25;5043677;28;20037;-80
2023/02/13 06:19:22;;;;;;;5.70;3.57;;;;;;;4.45;100.00;102963.78;4993650;28;20041;-80
2023/02/13 06:21:49;;;;;;;5.03;3.67;;;;;;;4.45;100.00;102969.91;5006589;28;20057;-80
2023/02/13 06:24:15;;;;;;;4.80;3.10;;;;;;;4.42;100.00;102968.91;5007624;28;22119;-81
2023/02/13 06:26:42;;;;;;;4.27;3.00;;;;;;;4.37;100.00;102966.09;4996734;28;20056;-81
2023/02/13 06:29:10;;;;;;;5.30;3.50;;;;;;;4.34;100.00;102965.06;5010835;28;20495;-81
2023/02/13 06:31:36;;;;;;;4.33;2.67;;;;;;;4.35;100.00;102967.75;5015426;28;20042;-80
2023/02/13 06:34:03;;;;;;;3.97;2.80;;;;;;;4.34;100.00;102971.19;4992761;28;20523;-81
2023/02/13 06:36:30;;;;;;;4.10;3.10;;;;;;;4.31;100.00;102970.19;4984725;28;20046;-82
2023/02/13 06:38:56;;;;;;;4.90;3.00;;;;;;;4.34;100.00;102980.78;5034357;28;20069;-80
2023/02/13 06:41:23;;;;;;;4.03;3.00;;;;;;;4.30;100.00;102981.47;4993065;28;20046;-81
2023/02/13 06:43:49;;;;;;;3.80;2.20;;;;;;;4.27;100.00;102984.84;5011582;28;20081;-86
2023/02/13 06:46:16;;;;;;;5.23;3.27;;;;;;;4.24;100.00;102979.50;5002167;28;20057;-82
2023/02/13 06:48:43;;;;;;;4.27;3.00;;;;;;;4.27;100.00;102983.94;5025063;28;20054;-80
2023/02/13 06:51:09;;;;;;;4.67;3.37;;;;;;;4.31;100.00;102975.41;5024337;28;20675;-82
2023/02/13 06:53:36;;;;;;;4.30;2.90;;;;;;;4.27;100.00;102979.59;5013832;28;20038;-81
2023/02/13 06:56:05;;;;;;;4.57;2.63;;;;;;;4.24;100.00;102982.09;5038223;28;20069;-85
2023/02/13 06:58:33;;;;;;;5.07;3.07;;;;;;;4.23;100.00;102983.84;5015947;28;20044;-79
2023/02/13 07:00:59;;;;;;;4.70;3.20;;;;;;;4.24;100.00;102984.72;5017397;28;20589;-83
2023/02/13 07:03:26;;;;;;;4.80;3.40;;;;;;;4.26;100.00;102993.53;5018106;28;20131;-81
2023/02/13 07:05:53;;;;;;;5.67;4.00;;;;;;;4.23;100.00;102989.06;5025940;28;20046;-82
2023/02/13 07:08:20;;;;;;;7.67;4.83;;;;;;;4.38;100.00;102993.16;4982167;28;20052;-82
2023/02/13 07:10:46;;;;;;;6.00;4.03;;;;;;;4.36;100.00;103000.94;5038477;28;20423;-81
2023/02/13 07:13:13;;;;;;;6.10;4.30;;;;;;;4.48;100.00;103001.47;5014442;28;20046;-82
2023/02/13 07:15:40;;;;;;;6.23;4.20;;;;;;;4.49;100.00;103000.63;5013284;28;20048;-80
2023/02/13 07:18:07;;;;;;;6.93;4.40;;;;;;;4.44;100.00;103002.16;4995449;28;20053;-81
2023/02/13 07:20:34;;;;;;;6.43;4.00;;;;;;;4.49;100.00;103002.34;5013865;28;20045;-82
2023/02/13 07:23:03;;;;;;;7.33;4.13;;;;;;;4.55;100.00;103006.97;5013294;28;20137;-81
2023/02/13 07:25:30;;;;;;;7.87;3.83;;;;;;;4.51;100.00;103012.06;5030440;28;20053;-82
2023/02/13 07:28:02;;;;;;;6.47;3.83;;;;;;;4.51;100.00;103008.53;5044468;28;20096;-82
2023/02/13 07:30:30;;;;;;;8.17;4.87;;;;;;;4.56;100.00;103007.03;4995224;28;20045;-80
2023/02/13 07:33:02;;;;;;;5.80;3.53;;;;;;;4.58;100.00;103009.69;4991797;28;20042;-80
2023/02/13 07:35:28;;;;;;;5.60;3.53;;;;;;;4.67;100.00;103005.72;5021562;28;20096;-82
2023/02/13 07:37:55;;;;;;;6.07;3.70;;;;;;;4.75;100.00;103006.03;5010886;28;20041;-79
2023/02/13 07:40:22;;;;;;;5.73;3.30;;;;;;;4.65;100.00;103007.41;5002914;28;20044;-82
2023/02/13 07:42:49;;;;;;;4.50;2.80;;;;;;;4.58;100.00;103013.22;5011847;28;20514;-83
2023/02/13 07:45:15;;;;;;;4.43;3.07;;;;;;;4.62;100.00;103015.09;5011499;28;20056;-80
2023/02/13 07:47:42;;;;;;;4.90;3.77;;;;;;;4.66;100.00;103016.16;5005299;28;20046;-80
2023/02/13 07:50:09;;;;;;;4.20;3.20;;;;;;;4.62;100.00;103016.84;5014549;28;20398;-80
2023/02/13 07:52:36;;;;;;;6.00;3.60;;;;;;;4.55;100.00;103014.81;4984688;28;20046;-79
2023/02/13 07:55:04;;;;;;;6.33;3.47;;;;;;;4.58;100.00;103017.56;4997781;28;20069;-80
2023/02/13 07:57:31;;;;;;;5.13;3.30;;;;;;;4.53;100.00;103017.34;5001855;28;20049;-80
2023/02/13 07:59:57;;;;;;;5.60;3.40;;;;;;;4.55;100.00;103020.06;5016525;28;20042;-79
2023/02/13 08:02:24;;;;;;;4.83;3.20;;;;;;;4.58;100.00;103022.78;5028065;28;20041;-79
2023/02/13 08:04:51;;;;;;;5.53;3.10;;;;;;;4.59;100.00;103019.34;5016621;28;20045;-79
2023/02/13 08:07:18;;;;;;;4.40;2.97;;;;;;;4.59;100.00;103014.09;5016827;28;20046;-79
2023/02/13 08:12:32;;;;;;;5.43;3.70;;;;;;;4.59;100.00;103004.53;5017054;28;20153;-79
2023/02/13 08:14:59;;;;;;;5.80;3.77;;;;;;;4.61;100.00;103002.84;5001382;28;20048;-80
2023/02/13 08:17:26;;;;;;;4.97;3.53;;;;;;;4.66;100.00;103010.91;5001354;28;20151;-80
2023/02/13 08:19:53;;;;;;;5.33;3.43;;;;;;;4.66;100.00;103000.44;5000937;28;20561;-80
2023/02/13 08:22:20;;;;;;;4.73;3.20;;;;;;;4.66;100.00;103006.56;5001580;28;20077;-79
2023/02/13 08:24:47;;;;;;;4.57;3.00;;;;;;;4.66;100.00;102998.72;5016728;28;20093;-82
2023/02/13 08:27:14;;;;;;;3.70;2.50;;;;;;;4.68;100.00;103009.25;4984508;28;20053;-80
2023/02/13 08:29:41;;;;;;;5.00;3.10;;;;;;;4.70;100.00;102995.38;5033879;28;20056;-80
2023/02/13 08:32:08;;;;;;;3.60;2.23;;;;;;;4.71;100.00;103001.53;5003024;28;20041;-80
2023/02/13 08:34:35;;;;;;;4.60;2.50;;;;;;;4.71;100.00;102999.81;4999261;28;20104;-80
2023/02/13 08:37:02;;;;;;;4.47;2.27;;;;;;;4.73;100.00;103006.00;5009176;28;20045;-80
2023/02/13 08:39:29;;;;;;;3.67;2.57;;;;;;;4.73;100.00;103000.75;5001340;28;20046;-80
2023/02/13 08:41:55;;;;;;;4.47;2.60;;;;;;;4.76;100.00;103005.22;5000896;28;20046;-80
2023/02/13 08:44:22;;;;;;;3.33;2.47;;;;;;;4.77;100.00;103009.63;5016614;28;20038;-80
2023/02/13 08:46:49;;;;;;;3.57;2.40;;;;;;;4.78;100.00;103020.16;5030701;28;20045;-82
2023/02/13 08:49:15;;;;;;;3.70;2.47;;;;;;;4.80;100.00;103020.25;5016179;28;20046;-79
2023/02/13 08:51:42;;;;;;;3.13;2.27;;;;;;;4.82;100.00;103025.53;4998143;28;20037;-80
2023/02/13 08:54:09;;;;;;;3.03;2.00;;;;;;;4.84;100.00;103018.63;5000924;28;20061;-79
2023/02/13 08:56:35;;;;;;;3.30;2.60;;;;;;;4.85;100.00;103028.25;5015411;28;20045;-81
2023/02/13 08:59:02;;;;;;;4.30;2.50;;;;;;;4.86;100.00;103027.44;4983270;28;20053;-81
2023/02/13 09:01:29;;;;;;;6.43;2.63;;;;;;;4.88;100.00;103031.91;4999223;28;20050;-82
2023/02/13 09:03:55;;;;;;;4.13;2.23;;;;;;;4.89;100.00;103036.31;4999821;28;20120;-80
2023/02/13 09:06:25;;;;;;;3.57;2.50;;;;;;;4.91;100.00;103042.50;5014883;28;20037;-81
2023/02/13 09:08:52;;;;;;;4.40;2.50;;;;;;;4.94;100.00;103034.75;5012773;28;20621;-81
2023/02/13 09:11:22;;;;;;;5.00;2.70;;;;;;;4.95;100.00;103027.78;5025790;28;20045;-80
2023/02/13 09:13:51;;;;;;;5.37;2.80;;;;;;;4.98;100.00;103041.03;4996790;28;20040;-81
2023/02/13 09:16:18;;;;;;;3.67;2.83;;;;;;;5.00;100.00;103040.25;4996011;28;20033;-80
2023/02/13 09:18:51;;;;;;;5.13;2.87;;;;;;;5.02;100.00;103042.94;5034484;28;20045;-83
2023/02/13 09:21:21;;;;;;;6.00;3.73;;;;;;;5.04;100.00;103041.25;5012734;28;20053;-80
2023/02/13 09:23:49;;;;;;;5.97;3.57;;;;;;;5.08;100.00;103037.94;5019733;28;20242;-82
2023/02/13 09:26:16;;;;;;;6.30;3.87;;;;;;;5.07;100.00;103026.56;5016255;28;20053;-80
2023/02/13 09:28:45;;;;;;;8.87;4.97;;;;;;;5.11;100.00;103022.34;5002651;28;20037;-80
2023/02/13 09:31:15;;;;;;;5.87;4.10;;;;;;;5.14;100.00;103035.59;4999169;28;20136;-80
2023/02/13 09:33:43;;;;;;;6.33;3.93;;;;;;;5.16;100.00;103028.66;4996174;28;20473;-82
2023/02/13 09:36:13;;;;;;;8.90;4.40;;;;;;;5.21;100.00;103035.00;5017656;28;20452;-82
2023/02/13 09:38:43;;;;;;;9.37;4.83;;;;;;;5.29;100.00;103028.31;5004327;28;20507;-82
2023/02/13 09:41:17;;;;;;;12.67;6.40;;;;;;;5.32;100.00;103038.91;4991542;28;20053;-81
2023/02/13 09:43:48;;;;;;;10.13;6.07;;;;;;;5.30;100.00;103026.59;4976210;28;20042;-81
2023/02/13 09:46:37;;;;;;;9.03;5.57;;;;;;;5.33;100.00;103037.19;4975900;28;20042;-81
2023/02/13 09:49:07;;;;;;;12.23;7.17;;;;;;;5.39;100.00;103033.94;4976627;28;20118;-83
2023/02/13 09:51:34;;;;;;;14.03;7.67;;;;;;;5.41;100.00;103033.16;4992657;28;20186;-82
2023/02/13 09:54:03;;;;;;;16.07;8.03;;;;;;;5.48;100.00;103026.41;5013049;28;20072;-80
2023/02/13 09:56:36;;;;;;;16.13;8.03;;;;;;;5.55;100.00;103026.72;4995542;28;20104;-82
2023/02/13 09:59:34;;;;;;;15.63;8.33;;;;;;;5.58;100.00;103025.91;5016245;28;20038;-81
2023/02/13 10:02:13;;;;;;;17.07;8.77;;;;;;;5.52;100.00;103018.72;5027197;28;20051;-82
2023/02/13 10:04:47;;;;;;;19.00;9.70;;;;;;;5.67;100.00;103025.38;4995516;28;20053;-81
2023/02/13 10:07:30;;;;;;;18.77;9.93;;;;;;;5.64;100.00;103026.16;5001427;28;20088;-83
2023/02/13 10:10:01;;;;;;;20.27;9.83;;;;;;;5.69;100.00;103031.56;5002798;28;20046;-81
2023/02/13 10:13:02;;;;;;;22.30;10.60;;;;;;;5.74;100.00;103028.28;5027492;28;20053;-81
2023/02/13 10:15:43;;;;;;;19.23;10.97;;;;;;;5.85;100.00;103033.91;5009341;28;20080;-81
2023/02/13 10:18:15;;;;;;;19.47;9.87;;;;;;;5.79;100.00;103029.31;5011595;28;20037;-82
2023/02/13 10:20:51;;;;;;;23.97;11.57;;;;;;;5.88;100.00;103028.78;5012373;28;20124;-82
2023/02/13 10:23:32;;;;;;;22.47;11.87;;;;;;;5.93;100.00;103027.25;5015553;28;20089;-80
2023/02/13 10:26:06;;;;;;;22.47;10.73;;;;;;;5.96;100.00;103031.72;5018683;28;20045;-82
2023/02/13 10:31:54;;;;;;;24.53;11.77;;;;;;;6.11;100.00;103032.28;5001806;28;20448;-82
2023/02/13 10:34:24;;;;;;;21.17;10.10;;;;;;;6.02;100.00;103030.22;5028789;28;20042;-82
2023/02/13 10:36:51;;;;;;;20.47;11.73;;;;;;;6.09;100.00;103024.34;5004324;28;20049;-81
2023/02/13 10:39:24;;;;;;;23.67;13.17;;;;;;;6.01;100.00;103012.69;5021490;28;20037;-82
2023/02/13 10:42:03;;;;;;;20.73;9.63;;;;;;;5.93;100.00;103015.03;5014692;28;20132;-79
2023/02/13 10:44:53;;;;;;;19.40;10.87;;;;;;;5.96;100.00;103006.38;4999018;28;20054;-80
2023/02/13 10:47:40;;;;;;;27.87;17.83;;;;;;;6.01;100.00;103015.31;5012471;28;20121;-80
2023/02/13 10:50:22;;;;;;;21.47;11.67;;;;;;;6.07;100.00;103012.03;4998698;28;20056;-79
2023/02/13 10:52:53;;;;;;;19.53;9.87;;;;;;;6.04;100.00;103012.78;5017477;28;20045;-80
2023/02/13 10:55:30;;;;;;;19.70;9.30;;;;;;;5.98;100.00;103007.34;4996782;28;20455;-80
2023/02/13 10:58:19;;;;;;;20.37;9.97;;;;;;;5.98;100.00;103007.34;4981136;28;20080;-81
2023/02/13 11:00:55;;;;;;;16.33;9.30;;;;;;;6.04;100.00;103001.41;5016621;28;20045;-79
2023/02/13 11:03:24;;;;;;;21.93;17.20;;;;;;;5.95;100.00;103001.97;5029051;28;20112;-80
2023/02/13 11:05:52;;;;;;;17.60;12.30;;;;;;;5.98;100.00;102993.34;5027806;28;20043;-80
2023/02/13 11:08:34;;;;;;;18.53;10.30;;;;;;;5.97;100.00;102997.69;5026505;28;20045;-79
2023/02/13 11:11:01;;;;;;;18.33;12.50;;;;;;;6.07;100.00;102998.91;4995849;28;20041;-80
2023/02/13 11:13:29;;;;;;;18.53;10.03;;;;;;;6.00;100.00;103002.13;5010778;28;20048;-80
2023/02/13 11:15:59;;;;;;;18.23;9.97;;;;;;;6.09;100.00;103000.72;5013740;28;20050;-80
2023/02/13 11:18:28;;;;;;;16.97;10.03;;;;;;;6.09;100.00;102999.84;4981023;28;20133;-80
2023/02/13 11:21:02;;;;;;;18.97;8.80;;;;;;;6.19;100.00;102996.69;4997775;28;20056;-80
2023/02/13 11:23:29;;;;;;;18.23;9.90;;;;;;;6.02;100.00;102995.22;5028688;28;20220;-80
2023/02/13 11:26:02;;;;;;;14.13;7.63;;;;;;;6.14;100.00;102986.06;5028120;28;20046;-81
2023/02/13 11:28:31;;;;;;;16.13;8.30;;;;;;;6.09;100.00;102981.47;5028255;28;20040;-81
2023/02/13 11:31:12;;;;;;;23.53;10.10;;;;;;;6.01;100.00;102981.19;5045372;28;20499;-80
2023/02/13 11:33:39;;;;;;;15.83;8.70;;;;;;;6.16;100.00;102972.97;5015695;28;20137;-80
2023/02/13 11:36:08;;;;;;;15.27;8.77;;;;;;;6.10;100.00;102981.53;4990532;28;20042;-80
2023/02/13 11:38:35;;;;;;;13.67;7.93;;;;;;;6.08;100.00;102985.81;4998545;28;20543;-80
2023/02/13 11:41:12;;;;;;;11.93;7.37;;;;;;;6.14;100.00;102987.78;4996508;28;20129;-80
2023/02/13 11:44:05;;;;;;;16.97;8.83;;;;;;;6.17;100.00;102986.16;4997272;28;20046;-80
2023/02/13 11:46:52;;;;;;;12.73;7.97;;;;;;;6.23;100.00;102976.72;4987684;28;20055;-81
2023/02/13 11:49:21;;;;;;;14.00;7.73;;;;;;;6.17;100.00;102975.66;5020509;28;20046;-80
2023/02/13 11:51:49;;;;;;;11.63;7.23;;;;;;;6.27;100.00;102981.22;4995624;28;20042;-80
2023/02/13 11:54:23;;;;;;;11.83;7.00;;;;;;;6.28;100.00;102972.50;5010673;28;20042;-81
2023/02/13 11:56:58;;;;;;;16.55;8.00;;;;;;;6.33;100.00;102979.69;5014943;28;20037;-81
2023/02/13 11:59:40;;;;;;;11.90;7.33;;;;;;;6.17;100.00;102988.78;5015020;28;20041;-80
2023/02/13 12:02:17;;;;;;;12.13;7.95;;;;;;;6.13;100.00;102988.59;4989663;28;20050;-80
2023/02/13 12:04:45;;;;;;;14.87;7.10;;;;;;;6.08;100.00;102988.44;5011768;28;20068;-80
2023/02/13 12:07:17;;;;;;;11.00;6.47;;;;;;;6.04;100.00;102980.41;5007889;28;20057;-80
2023/02/13 12:09:47;;;;;;;11.67;6.87;;;;;;;6.11;100.00;102980.69;5027558;28;20038;-80
2023/02/13 12:12:24;;;;;;;10.23;6.97;;;;;;;6.20;100.00;102977.47;4992505;28;20050;-80
2023/02/13 12:14:51;;;;;;;13.73;7.60;;;;;;;6.08;100.00;102980.59;4999537;28;20042;-81
2023/02/13 12:17:21;;;;;;;13.23;7.33;;;;;;;6.07;100.00;102981.41;5013950;28;20464;-80
2023/02/13 12:19:57;;;;;;;13.50;7.07;;;;;;;6.06;100.00;102971.78;5004955;28;20042;-80
2023/02/13 12:22:35;;;;;;;12.83;7.80;;;;;;;6.16;100.00;102963.38;5011820;28;20403;-80
2023/02/13 12:25:34;;;;;;;14.17;7.33;;;;;;;6.21;100.00;102967.03;5017623;28;20049;-80
2023/02/13 12:28:12;;;;;;;13.90;7.23;;;;;;;6.21;100.00;102969.66;5039506;28;20041;-81
2023/02/13 12:30:44;;;;;;;13.30;6.87;;;;;;;6.13;100.00;102976.38;5005611;28;20048;-82